createdAt,value
2022-12-16T00:01:26.838Z,82.28
2022-12-16T00:03:55.865Z,82.65
2022-12-16T00:06:24.904Z,83.30
2022-12-16T00:08:52.260Z,85.30
2022-12-16T00:11:20.109Z,84.62
2022-12-16T00:13:47.576Z,82.02
2022-12-16T00:16:16.292Z,81.20
2022-12-16T00:18:44.460Z,80.45
2022-12-16T00:21:11.900Z,79.36
2022-12-16T00:23:39.524Z,79.86
2022-12-16T00:26:07.382Z,80.20
2022-12-16T00:28:35.601Z,82.49
2022-12-16T00:31:03.175Z,80.29
2022-12-16T00:33:31.115Z,81.13
2022-12-16T00:35:58.851Z,81.45
2022-12-16T00:38:26.515Z,81.96
2022-12-16T00:40:54.175Z,80.56
2022-12-16T00:43:22.498Z,82.68
2022-12-16T00:45:49.889Z,83.55
2022-12-16T00:48:19.648Z,81.70
2022-12-16T00:50:49.779Z,82.12
2022-12-16T00:53:20.752Z,85.73
2022-12-16T00:55:48.085Z,82.92
2022-12-16T00:58:15.885Z,82.04
2022-12-16T01:00:43.636Z,82.22
2022-12-16T01:03:13.386Z,80.75
2022-12-16T01:05:44.388Z,80.99
2022-12-16T01:08:11.723Z,80.32
2022-12-16T01:10:39.027Z,80.70
2022-12-16T01:13:06.756Z,80.39
2022-12-16T01:15:34.094Z,79.18
2022-12-16T01:18:01.446Z,82.61
2022-12-16T01:20:29.070Z,82.23
2022-12-16T01:22:56.437Z,82.15
2022-12-16T01:25:23.760Z,84.98
2022-12-16T01:27:51.466Z,86.30
2022-12-16T01:30:20.331Z,83.58
2022-12-16T01:32:47.695Z,84.08
2022-12-16T01:35:50.970Z,83.12
2022-12-16T01:38:02.756Z,83.83
2022-12-16T01:40:30.400Z,85.04
2022-12-16T01:42:57.701Z,87.25
2022-12-16T01:45:24.875Z,85.44
2022-12-16T01:47:53.603Z,85.19
2022-12-16T01:50:21.519Z,83.51
2022-12-16T01:52:51.378Z,85.18
2022-12-16T01:55:24.990Z,83.01
2022-12-16T01:58:14.479Z,84.93
2022-12-16T02:00:42.305Z,84.93
2022-12-16T02:03:09.997Z,80.75
2022-12-16T02:05:40.656Z,84.84
2022-12-16T02:08:18.162Z,83.06
2022-12-16T02:10:46.978Z,88.71
2022-12-16T02:13:42.077Z,88.31
2022-12-16T02:16:39.134Z,84.06
2022-12-16T02:19:42.524Z,85.51
2022-12-16T02:22:25.292Z,86.78
2022-12-16T02:25:23.476Z,84.85
2022-12-16T02:28:06.189Z,86.90
2022-12-16T02:30:36.263Z,86.86
2022-12-16T02:33:41.562Z,86.20
2022-12-16T02:36:11.845Z,86.16
2022-12-16T02:38:55.898Z,86.10
2022-12-16T02:41:29.304Z,86.79
2022-12-16T02:43:59.018Z,84.89
2022-12-16T02:46:27.605Z,85.13
2022-12-16T02:48:55.214Z,83.96
2022-12-16T02:51:24.094Z,85.26
2022-12-16T02:53:52.181Z,85.69
2022-12-16T02:56:39.492Z,86.74
2022-12-16T02:59:07.031Z,84.83
2022-12-16T03:01:37.710Z,87.04
2022-12-16T03:04:11.276Z,88.37
2022-12-16T03:06:39.137Z,86.04
2022-12-16T03:09:08.163Z,86.69
2022-12-16T03:11:35.551Z,86.16
2022-12-16T03:14:03.146Z,91.08
2022-12-16T03:16:31.657Z,85.07
2022-12-16T03:19:04.172Z,85.92
2022-12-16T03:21:38.452Z,85.12
2022-12-16T03:24:08.066Z,87.26
2022-12-16T03:26:39.394Z,87.15
2022-12-16T03:29:24.780Z,86.04
2022-12-16T03:31:57.581Z,86.50
2022-12-16T03:34:45.127Z,87.69
2022-12-16T03:37:13.335Z,85.54
2022-12-16T03:39:48.680Z,86.71
2022-12-16T03:42:16.416Z,85.35
2022-12-16T03:44:44.548Z,85.49
2022-12-16T03:47:14.980Z,84.57
2022-12-16T03:49:46.031Z,84.14
2022-12-16T03:52:13.399Z,86.37
2022-12-16T03:54:40.808Z,88.68
2022-12-16T03:57:14.798Z,83.44
2022-12-16T03:59:43.181Z,83.16
2022-12-16T04:02:11.168Z,85.96
2022-12-16T04:04:38.956Z,86.71
2022-12-16T04:07:21.898Z,84.40
2022-12-16T04:09:49.519Z,83.12
2022-12-16T04:12:35.533Z,82.83
2022-12-16T04:15:22.681Z,85.35
2022-12-16T04:18:08.639Z,85.97
2022-12-16T04:20:56.963Z,84.89
2022-12-16T04:23:43.833Z,85.16
2022-12-16T04:26:11.463Z,83.71
2022-12-16T04:28:38.820Z,84.52
2022-12-16T04:31:06.421Z,84.40
2022-12-16T04:33:53.036Z,83.74
2022-12-16T04:36:38.901Z,83.58
2022-12-16T04:39:25.406Z,83.59
2022-12-16T04:42:12.296Z,85.27
2022-12-16T04:44:58.894Z,84.27
2022-12-16T04:47:45.431Z,88.17
2022-12-16T04:50:31.918Z,86.62
2022-12-16T04:53:17.848Z,84.62
2022-12-16T04:56:04.964Z,82.92
2022-12-16T04:58:51.135Z,82.58
2022-12-16T05:01:37.652Z,86.05
2022-12-16T05:04:23.510Z,83.14
2022-12-16T05:07:09.806Z,83.60
2022-12-16T05:09:55.850Z,84.72
2022-12-16T05:12:42.400Z,84.38
2022-12-16T05:15:28.442Z,85.69
2022-12-16T05:18:14.970Z,85.40
2022-12-16T05:21:00.977Z,84.48
2022-12-16T05:23:47.455Z,87.61
2022-12-16T05:26:33.510Z,84.04
2022-12-16T05:29:19.938Z,83.07
2022-12-16T05:32:06.105Z,85.08
2022-12-16T05:34:52.126Z,81.21
2022-12-16T05:37:37.864Z,79.24
2022-12-16T05:40:24.419Z,81.90
2022-12-16T05:43:16.360Z,80.99
2022-12-16T05:46:03.432Z,86.19
2022-12-16T05:48:49.216Z,84.24
2022-12-16T05:51:35.626Z,83.08
2022-12-16T05:54:21.790Z,81.66
2022-12-16T05:57:08.045Z,82.51
2022-12-16T05:59:53.998Z,85.21
2022-12-16T06:02:40.514Z,84.74
2022-12-16T06:05:27.393Z,84.34
2022-12-16T06:08:13.475Z,85.35
2022-12-16T06:10:59.948Z,84.30
2022-12-16T06:13:45.827Z,84.44
2022-12-16T06:16:32.736Z,80.80
2022-12-16T06:19:19.058Z,80.33
2022-12-16T06:22:05.605Z,82.41
2022-12-16T06:24:51.715Z,80.52
2022-12-16T06:27:38.192Z,79.02
2022-12-16T06:30:24.775Z,79.13
2022-12-16T06:33:11.480Z,78.05
2022-12-16T06:35:57.367Z,79.13
2022-12-16T06:38:43.230Z,76.49
2022-12-16T06:41:29.040Z,77.54
2022-12-16T06:44:15.664Z,76.03
2022-12-16T06:47:01.608Z,77.92
2022-12-16T06:49:47.427Z,77.75
2022-12-16T06:52:33.324Z,76.26
2022-12-16T06:55:19.853Z,80.11
2022-12-16T06:58:09.838Z,81.74
2022-12-16T07:00:56.390Z,79.38
2022-12-16T07:03:43.074Z,80.13
2022-12-16T07:06:29.806Z,83.41
2022-12-16T07:09:15.692Z,79.84
2022-12-16T07:12:02.357Z,77.20
2022-12-16T07:14:48.349Z,76.92
2022-12-16T07:17:34.226Z,75.63
2022-12-16T07:20:20.600Z,76.37
2022-12-16T07:23:13.141Z,76.14
2022-12-16T07:26:03.825Z,76.21
2022-12-16T07:28:49.955Z,77.81
2022-12-16T07:31:36.243Z,80.79
2022-12-16T07:34:22.643Z,76.49
2022-12-16T07:37:09.887Z,77.13
2022-12-16T07:39:56.031Z,77.61
2022-12-16T07:42:47.175Z,78.16
2022-12-16T07:45:33.755Z,82.10
2022-12-16T07:48:19.983Z,77.87
2022-12-16T07:51:05.931Z,80.48
2022-12-16T07:53:51.813Z,77.64
2022-12-16T07:56:38.254Z,75.45
2022-12-16T07:59:24.245Z,75.38
2022-12-16T08:02:10.947Z,77.26
2022-12-16T08:04:58.771Z,76.41
2022-12-16T08:07:45.365Z,76.78
2022-12-16T08:10:31.941Z,76.04
2022-12-16T08:13:32.203Z,75.30
2022-12-16T08:16:20.512Z,75.11
2022-12-16T08:19:11.076Z,76.60
2022-12-16T08:21:58.685Z,75.06
2022-12-16T08:24:51.275Z,78.47
2022-12-16T08:27:39.835Z,76.21
2022-12-16T08:30:26.517Z,74.97
2022-12-16T08:33:18.768Z,72.86
2022-12-16T08:36:06.579Z,72.75
2022-12-16T08:38:53.154Z,72.75
2022-12-16T08:41:39.427Z,72.04
2022-12-16T08:44:25.773Z,71.78
2022-12-16T08:47:11.656Z,71.77
2022-12-16T08:50:01.605Z,71.64
2022-12-16T08:52:50.273Z,71.40
2022-12-16T08:55:36.821Z,71.47
2022-12-16T08:58:22.719Z,71.39
2022-12-16T09:01:09.289Z,70.46
2022-12-16T09:03:55.657Z,70.28
2022-12-16T09:06:42.069Z,69.72
2022-12-16T09:09:29.142Z,71.43
2022-12-16T09:12:15.878Z,72.96
2022-12-16T09:15:01.937Z,74.12
2022-12-16T09:17:48.360Z,72.05
2022-12-16T09:20:34.357Z,70.48
2022-12-16T09:23:21.369Z,71.56
2022-12-16T09:26:07.470Z,70.57
2022-12-16T09:28:53.435Z,70.27
2022-12-16T09:31:40.999Z,69.37
2022-12-16T09:34:27.326Z,70.26
2022-12-16T09:37:13.359Z,69.99
2022-12-16T09:39:59.671Z,69.64
2022-12-16T09:43:13.343Z,70.37
2022-12-16T09:46:02.399Z,70.31
2022-12-16T09:49:01.331Z,70.13
2022-12-16T09:51:47.546Z,72.66
2022-12-16T09:54:35.047Z,71.22
2022-12-16T09:57:24.468Z,70.36
2022-12-16T10:00:14.235Z,71.06
2022-12-16T10:03:06.802Z,71.81
2022-12-16T10:06:35.555Z,73.24
2022-12-16T10:09:37.125Z,71.75
2022-12-16T10:12:29.341Z,71.90
2022-12-16T10:15:26.428Z,73.97
2022-12-16T10:18:12.592Z,72.30
2022-12-16T10:21:01.519Z,71.98
2022-12-16T10:24:25.893Z,72.62
2022-12-16T10:27:17.336Z,72.56
2022-12-16T10:30:03.361Z,75.88
2022-12-16T10:32:51.218Z,73.77
2022-12-16T10:35:40.350Z,75.31
2022-12-16T10:38:44.326Z,73.24
2022-12-16T10:41:47.037Z,79.57
2022-12-16T10:44:43.410Z,76.90
2022-12-16T10:47:29.911Z,73.73
2022-12-16T10:50:16.388Z,73.71
2022-12-16T10:53:16.356Z,73.19
2022-12-16T10:56:15.091Z,75.06
2022-12-16T10:59:13.779Z,77.00
2022-12-16T11:02:00.437Z,79.99
2022-12-16T11:04:56.468Z,79.63
2022-12-16T11:07:43.817Z,77.35
2022-12-16T11:11:00.952Z,77.84
2022-12-16T11:13:49.374Z,77.56
2022-12-16T11:16:45.670Z,78.14
2022-12-16T11:19:38.612Z,77.82
2022-12-16T11:22:43.531Z,77.07
2022-12-16T11:25:35.749Z,81.30
2022-12-16T11:28:33.228Z,80.38
2022-12-16T11:31:26.566Z,81.11
2022-12-16T11:34:12.649Z,81.22
2022-12-16T11:36:59.314Z,80.80
2022-12-16T11:39:45.774Z,79.71
2022-12-16T11:42:39.545Z,79.82
2022-12-16T11:45:26.119Z,76.79
2022-12-16T11:48:17.723Z,76.80
2022-12-16T11:51:10.127Z,75.93
2022-12-16T11:54:10.746Z,76.50
2022-12-16T11:57:01.859Z,75.75
2022-12-16T12:00:04.122Z,76.19
2022-12-16T12:03:00.729Z,78.55
2022-12-16T12:05:57.515Z,77.79
2022-12-16T12:09:12.871Z,75.15
2022-12-16T12:12:04.646Z,78.73
2022-12-16T12:14:53.396Z,79.12
2022-12-16T12:17:48.941Z,81.72
2022-12-16T12:20:41.169Z,82.62
2022-12-16T12:23:29.638Z,83.50
2022-12-16T12:26:30.460Z,83.93
2022-12-16T12:29:37.860Z,84.28
2022-12-16T12:32:33.100Z,85.31
2022-12-16T12:35:51.630Z,84.07
2022-12-16T12:38:39.958Z,84.32
2022-12-16T12:41:46.358Z,83.33
2022-12-16T12:44:48.885Z,83.39
2022-12-16T12:47:35.685Z,84.98
2022-12-16T12:50:38.255Z,83.88
2022-12-16T12:53:37.796Z,81.24
2022-12-16T12:56:32.111Z,82.97
2022-12-16T12:59:21.296Z,81.44
2022-12-16T13:02:07.454Z,80.05
2022-12-16T13:04:53.860Z,82.44
2022-12-16T13:07:44.162Z,81.54
2022-12-16T13:10:31.355Z,82.24
2022-12-16T13:13:36.199Z,79.68
2022-12-16T13:16:23.580Z,80.39
2022-12-16T13:19:52.324Z,82.25
2022-12-16T13:22:55.285Z,81.97
2022-12-16T13:26:09.960Z,81.33
2022-12-16T13:28:57.905Z,79.09
2022-12-16T13:31:44.500Z,78.11
2022-12-16T13:34:34.097Z,77.21
2022-12-16T13:37:29.830Z,77.26
2022-12-16T13:40:24.766Z,79.85
2022-12-16T13:43:13.841Z,84.21
2022-12-16T13:46:01.977Z,81.67
2022-12-16T13:48:58.578Z,82.54
2022-12-16T13:51:57.263Z,79.88
2022-12-16T13:54:49.723Z,79.92
2022-12-16T13:57:38.041Z,78.20
2022-12-16T14:00:25.064Z,78.46
2022-12-16T14:03:11.282Z,78.38
2022-12-16T14:06:10.762Z,80.70
2022-12-16T14:09:07.970Z,81.61
2022-12-16T14:12:18.262Z,79.39
2022-12-16T14:15:10.181Z,78.79
2022-12-16T14:18:01.466Z,79.23
2022-12-16T14:20:54.855Z,85.02
2022-12-16T14:23:56.549Z,83.75
2022-12-16T14:26:43.681Z,80.71
2022-12-16T14:29:39.189Z,81.36
2022-12-16T14:32:46.510Z,84.90
2022-12-16T14:35:40.276Z,81.71
2022-12-16T14:38:32.364Z,78.82
2022-12-16T14:41:18.391Z,77.63
2022-12-16T14:44:04.738Z,76.57
2022-12-16T14:46:57.264Z,75.61
2022-12-16T14:49:46.325Z,78.39
2022-12-16T14:52:42.939Z,78.33
2022-12-16T14:55:44.636Z,77.40
2022-12-16T14:58:37.291Z,76.86
2022-12-16T15:01:38.506Z,77.21
2022-12-16T15:04:27.736Z,78.61
2022-12-16T15:07:14.240Z,83.29
2022-12-16T15:10:04.725Z,86.15
2022-12-16T15:12:53.435Z,85.03
2022-12-16T15:16:00.933Z,84.46
2022-12-16T15:18:52.703Z,85.28
2022-12-16T15:21:38.650Z,87.71
2022-12-16T15:24:39.051Z,85.79
2022-12-16T15:27:40.482Z,85.46
2022-12-16T15:31:01.896Z,85.68
2022-12-16T15:33:49.898Z,85.69
2022-12-16T15:36:52.030Z,85.18
2022-12-16T15:39:55.318Z,84.31
2022-12-16T15:42:48.458Z,87.60
2022-12-16T15:45:42.775Z,86.25
2022-12-16T15:48:36.274Z,87.07
2022-12-16T15:51:42.156Z,86.00
2022-12-16T15:54:41.906Z,85.07
2022-12-16T15:57:49.851Z,83.64
2022-12-16T16:00:44.928Z,88.44
2022-12-16T16:03:57.531Z,89.21
2022-12-16T16:07:04.260Z,88.29
2022-12-16T16:09:50.707Z,89.75
2022-12-16T16:12:38.051Z,90.46
2022-12-16T16:15:25.790Z,90.83
2022-12-16T16:18:14.672Z,87.73
2022-12-16T16:21:01.107Z,82.79
2022-12-16T16:23:47.768Z,83.09
2022-12-16T16:26:35.800Z,84.59
2022-12-16T16:29:21.695Z,82.77
2022-12-16T16:32:08.409Z,81.68
2022-12-16T16:34:54.259Z,81.93
2022-12-16T16:37:40.309Z,83.44
2022-12-16T16:40:48.045Z,80.97
2022-12-16T16:43:35.015Z,82.19
2022-12-16T16:46:21.672Z,81.13
2022-12-16T16:49:11.095Z,81.20
2022-12-16T16:51:57.130Z,79.09
2022-12-16T16:54:43.674Z,81.45
2022-12-16T16:57:29.580Z,84.84
2022-12-16T17:00:15.911Z,83.42
2022-12-16T17:03:02.465Z,83.23
2022-12-16T17:05:49.072Z,80.90
2022-12-16T17:08:39.600Z,84.51
2022-12-16T17:11:39.737Z,81.74
2022-12-16T17:14:32.870Z,82.23
2022-12-16T17:17:19.019Z,82.42
2022-12-16T17:20:05.059Z,82.90
2022-12-16T17:22:51.360Z,84.04
2022-12-16T17:25:37.173Z,83.04
2022-12-16T17:28:23.655Z,83.45
2022-12-16T17:31:09.677Z,81.74
2022-12-16T17:33:56.034Z,81.58
2022-12-16T17:36:41.875Z,84.19
2022-12-16T17:39:28.244Z,84.43
2022-12-16T17:42:14.369Z,82.61
2022-12-16T17:45:01.096Z,82.90
2022-12-16T17:47:47.101Z,83.44
2022-12-16T17:50:33.628Z,81.60
2022-12-16T17:53:19.631Z,83.81
2022-12-16T17:56:05.998Z,84.87
2022-12-16T17:58:53.632Z,84.02
2022-12-16T18:01:40.212Z,84.71
2022-12-16T18:04:26.707Z,83.66
2022-12-16T18:07:12.938Z,85.60
2022-12-16T18:09:58.879Z,84.89
2022-12-16T18:12:44.754Z,85.04
2022-12-16T18:15:31.191Z,83.82
2022-12-16T18:18:17.114Z,83.89
2022-12-16T18:21:03.463Z,84.81
2022-12-16T18:23:49.830Z,84.63
2022-12-16T18:26:35.655Z,84.72
2022-12-16T18:29:21.599Z,84.82
2022-12-16T18:32:07.948Z,83.58
2022-12-16T18:34:54.027Z,85.61
2022-12-16T18:37:40.543Z,85.16
2022-12-16T18:40:27.562Z,83.41
2022-12-16T18:43:14.057Z,84.60
2022-12-16T18:46:00.013Z,83.71
2022-12-16T18:48:46.227Z,85.33
2022-12-16T18:51:32.146Z,85.11
2022-12-16T18:54:18.660Z,84.85
2022-12-16T18:57:04.545Z,85.50
2022-12-16T18:59:51.048Z,86.82
2022-12-16T19:02:37.262Z,83.67
2022-12-16T19:05:23.508Z,83.68
2022-12-16T19:08:14.165Z,86.73
2022-12-16T19:11:00.896Z,85.19
2022-12-16T19:13:46.939Z,85.04
2022-12-16T19:16:34.334Z,84.59
2022-12-16T19:19:20.850Z,87.06
2022-12-16T19:22:07.268Z,85.79
2022-12-16T19:24:55.075Z,84.04
2022-12-16T19:27:42.532Z,84.25
2022-12-16T19:30:29.100Z,82.91
2022-12-16T19:33:15.582Z,82.82
2022-12-16T19:36:01.560Z,83.87
2022-12-16T19:38:48.152Z,86.80
2022-12-16T19:41:35.009Z,90.30
2022-12-16T19:44:22.240Z,88.14
2022-12-16T19:47:09.269Z,87.66
2022-12-16T19:49:56.164Z,89.02
2022-12-16T19:52:42.408Z,87.85
2022-12-16T19:55:28.911Z,87.42
2022-12-16T19:58:14.906Z,85.51
2022-12-16T20:01:01.647Z,87.14
2022-12-16T20:03:48.776Z,87.93
2022-12-16T20:06:35.116Z,86.19
2022-12-16T20:09:21.717Z,84.95
2022-12-16T20:12:07.883Z,87.36
2022-12-16T20:14:53.747Z,85.60
2022-12-16T20:17:42.633Z,85.31
2022-12-16T20:20:28.605Z,87.82
2022-12-16T20:23:14.441Z,90.16
2022-12-16T20:26:00.883Z,89.88
2022-12-16T20:28:46.925Z,87.35
2022-12-16T20:31:33.420Z,86.37
2022-12-16T20:34:19.537Z,85.21
2022-12-16T20:37:05.386Z,85.62
2022-12-16T20:39:56.935Z,84.00
2022-12-16T20:42:44.341Z,82.95
2022-12-16T20:45:34.070Z,84.41
2022-12-16T20:48:22.907Z,84.65
2022-12-16T20:51:19.715Z,84.52
2022-12-16T20:54:09.162Z,84.67
2022-12-16T20:56:55.252Z,86.76
2022-12-16T20:59:42.542Z,88.03
2022-12-16T21:02:34.550Z,86.96
2022-12-16T21:05:21.533Z,86.77
2022-12-16T21:08:07.449Z,84.15
2022-12-16T21:10:55.991Z,86.26
2022-12-16T21:13:43.045Z,84.71
2022-12-16T21:16:29.621Z,83.12
2022-12-16T21:19:15.586Z,85.06
2022-12-16T21:22:02.075Z,86.52
2022-12-16T21:24:48.076Z,85.19
2022-12-16T21:27:34.312Z,86.12
2022-12-16T21:30:20.543Z,87.49
2022-12-16T21:33:08.579Z,85.40
2022-12-16T21:35:55.976Z,86.66
2022-12-16T21:38:44.075Z,84.74
2022-12-16T21:41:30.663Z,83.95
2022-12-16T21:44:17.089Z,82.62
2022-12-16T21:47:03.112Z,82.76
2022-12-16T21:49:49.733Z,83.92
2022-12-16T21:52:35.817Z,83.04
2022-12-16T21:55:21.894Z,83.62
2022-12-16T21:58:07.770Z,81.76
2022-12-16T22:00:57.491Z,84.51
2022-12-16T22:03:55.024Z,84.17
2022-12-16T22:06:48.248Z,83.41
2022-12-16T22:09:34.969Z,84.05
2022-12-16T22:12:20.987Z,84.50
2022-12-16T22:15:07.618Z,83.68
2022-12-16T22:17:58.325Z,83.09
2022-12-16T22:20:45.449Z,81.60
2022-12-16T22:23:31.395Z,81.15
2022-12-16T22:26:18.403Z,82.59
2022-12-16T22:29:04.730Z,84.25
2022-12-16T22:31:50.725Z,83.01
2022-12-16T22:34:37.957Z,84.10
2022-12-16T22:37:23.975Z,83.06
2022-12-16T22:40:09.717Z,83.69
2022-12-16T22:42:56.388Z,83.17
2022-12-16T22:45:42.020Z,83.54
2022-12-16T22:48:30.947Z,82.52
2022-12-16T22:51:16.773Z,82.37
2022-12-16T22:54:03.170Z,81.88
2022-12-16T22:56:49.101Z,85.13
2022-12-16T22:59:35.548Z,84.73
2022-12-16T23:02:21.498Z,83.40
2022-12-16T23:05:08.071Z,83.81
2022-12-16T23:07:54.440Z,83.18
2022-12-16T23:10:42.782Z,83.02
2022-12-16T23:13:29.735Z,84.56
2022-12-16T23:16:16.426Z,86.06
2022-12-16T23:19:02.023Z,85.63
2022-12-16T23:21:48.469Z,83.71
2022-12-16T23:24:34.518Z,84.47
2022-12-16T23:27:21.029Z,84.72
2022-12-16T23:30:07.485Z,83.29
2022-12-16T23:32:53.986Z,83.25
2022-12-16T23:35:39.919Z,84.17
2022-12-16T23:38:26.522Z,85.05
2022-12-16T23:41:16.543Z,85.50
2022-12-16T23:44:02.898Z,83.80
2022-12-16T23:46:48.881Z,83.25
2022-12-16T23:49:46.001Z,82.61
2022-12-16T23:52:32.081Z,81.51
2022-12-16T23:55:18.388Z,82.42
2022-12-16T23:58:04.208Z,82.69
